﻿ProjectID	SampleID	SampleType	TaxonomyID	UniqCodeType	UniqCode	SampleName	ScientificName	CommonName	CollectionYear	CollectionMonth	CollectionDay	SamplingTimeStartEnd	SamplingTimeAMPM	SamplingDuration	WeatherStartEnd	CollectionRegion	CollectionCountry	CollectionArea	CollectionLatitudeFrom	CollectionLatitudeTo	CollectionLongitudeFrom	CollectionLongitudeTo	Sex	TissueOrgan	TissueLipid	TissueMoist	Weight	WeightUnit	Length	LengthUnit	LengthType	GrowthStage	Age	Disease	TemperatureStartEnd	WaterTemperatureStartEnd	pH	DO	EC	EC_temp	Salinity	SS	WaterDepthM	TransparencyM	WaterColor	SedimentTemperatureStartEnd	SedimentDepthM	SedimentAppearance	SedimentColor	SedimentSurfaceColor	SedimentOdor	SedimentImpurities	SedimentMoistureOnSiteAnalysis	IgnitionLossOnSiteAnalysis	SoilDepthM	FlowRate	MeanPM10	MeanTotalSuspendedParticles	HumidityStartEnd	WindDirectionStartEnd	WindSpeedMSStartEnd	AmountOfCollectedAirStartEnd	Remarks	RegisterDate	UpdateDate
PRA000020	SAA000760	ST008	217509			CF1	"Carassius carassius"	"Crucian carp"	2011	11	2					Asia	Japan	Kumamoto	32.09472222	33.19527778	129.9402778	131.3294444	Female	Plasma			1000	g	32	cm	"Body length"																																	2017/1/13	2017/1/13
PRA000020	SAA000761	ST008	217509			CF2	"Carassius carassius"	"Crucian carp"	2011	11	2					Asia	Japan	Kumamoto	32.09472222	33.19527778	129.9402778	131.3294444	Female	Plasma			650	g	27	cm	"Body length"																																	2017/1/13	2017/1/13
PRA000020	SAA000762	ST008	217509			CF3	"Carassius carassius"	"Crucian carp"	2011	11	2					Asia	Japan	Kumamoto	32.09472222	33.19527778	129.9402778	131.3294444	Male	Plasma			630	g	27	cm	"Body length"																																	2017/1/13	2017/1/13
PRA000020	SAA000763	ST008	217509			CF4	"Carassius carassius"	"Crucian carp"	2011	11	2					Asia	Japan	Kumamoto	32.09472222	33.19527778	129.9402778	131.3294444	Female	Plasma			510	g	27.5	cm	"Body length"																																	2017/1/13	2017/1/13
PRA000020	SAA000764	ST008	217509			CF5	"Carassius carassius"	"Crucian carp"	2011	11	2					Asia	Japan	Kumamoto	32.09472222	33.19527778	129.9402778	131.3294444	Female	Plasma			500	g	27	cm	"Body length"																																	2017/1/13	2017/1/13
PRA000020	SAA000765	ST008	217509			CF6	"Carassius carassius"	"Crucian carp"	2011	11	2					Asia	Japan	Kumamoto	32.09472222	33.19527778	129.9402778	131.3294444	Male	Plasma			550	g	25	cm	"Body length"																																	2017/1/13	2017/1/13
PRA000020	SAA000766	ST008	217509	es-BANK	"EF15380 "	CF7	"Carassius carassius"	"Crucian carp"	2013	8	8					Asia	Japan	Ehime	32.88472222	34.30166667	132.0125	133.6930556	Female	Plasma			640	g	27.5	cm	"Body length"																																	2017/1/13	2017/1/13
PRA000020	SAA000767	ST008	217509	es-BANK	"EF15381 "	CF8	"Carassius carassius"	"Crucian carp"	2013	8	8					Asia	Japan	Ehime	32.88472222	34.30166667	132.0125	133.6930556	Female	Plasma			590	g	27	cm	"Body length"																																	2017/1/13	2017/1/13
PRA000020	SAA000768	ST008	217509	es-BANK	"EF15382 "	CF9	"Carassius carassius"	"Crucian carp"	2013	8	8					Asia	Japan	Ehime	32.88472222	34.30166667	132.0125	133.6930556	Female	Plasma			800	g	29	cm	"Body length"																																	2017/1/13	2017/1/13
PRA000020	SAA000769	ST008	217509	es-BANK	"EF15383 "	CF10	"Carassius carassius"	"Crucian carp"	2013	8	8					Asia	Japan	Ehime	32.88472222	34.30166667	132.0125	133.6930556	Female	Plasma			710	g	26.5	cm	"Body length"																																	2017/1/13	2017/1/13
PRA000020	SAA000770	ST008	217509	es-BANK	"EF15384 "	CF11	"Carassius carassius"	"Crucian carp"	2013	8	8					Asia	Japan	Ehime	32.88472222	34.30166667	132.0125	133.6930556	unknown	Plasma			150	g	16.5	cm	"Body length"																																	2017/1/13	2017/1/13
PRA000020	SAA000771	ST008	7962	es-BANK	"EF15385 "	CF12	"Cyprinus carpio"	"Common carp"	2013	8	8					Asia	Japan	Ehime	32.88472222	34.30166667	132.0125	133.6930556	unknown	Plasma			270	g	22	cm	"Body length"																																	2017/1/13	2017/1/13
PRA000020	SAA000772	ST008	7962	es-BANK	"EF15386 "	CF13	"Cyprinus carpio"	"Common carp"	2013	8	8					Asia	Japan	Ehime	32.88472222	34.30166667	132.0125	133.6930556	Male	Plasma			1600	g	42.5	cm	"Body length"																																	2017/1/13	2017/1/13
PRA000020	SAA000773	ST008	7962	es-BANK	"EF15387 "	CF14	"Cyprinus carpio"	"Common carp"	2013	12	3					Asia	Japan	Ehime	32.88472222	34.30166667	132.0125	133.6930556	Female	Plasma			2550	g	49	cm	"Body length"																																	2017/1/13	2017/1/13
PRA000020	SAA000774	ST008	7962	es-BANK	"EF15388 "	CF15	"Cyprinus carpio"	"Common carp"	2013	12	3					Asia	Japan	Ehime	32.88472222	34.30166667	132.0125	133.6930556	Female	Plasma			3100	g	51	cm	"Body length"																																	2017/1/13	2017/1/13
PRA000020	SAA000775	ST008	7962	es-BANK	"EF15389 "	CF16	"Cyprinus carpio"	"Common carp"	2013	12	3					Asia	Japan	Ehime	32.88472222	34.30166667	132.0125	133.6930556	Female	Plasma			4150	g	55	cm	"Body length"																																	2017/1/13	2017/1/13
PRA000020	SAA000776	ST008	7962	es-BANK	"EF15390 "	CF17	"Cyprinus carpio"	"Common carp"	2013	12	3					Asia	Japan	Ehime	32.88472222	34.30166667	132.0125	133.6930556	Female	Plasma			3050	g	54	cm	"Body length"																																	2017/1/13	2017/1/13
PRA000020	SAA000777	ST008	7962	es-BANK	"EF15391 "	CF18	"Cyprinus carpio"	"Common carp"	2013	12	3					Asia	Japan	Ehime	32.88472222	34.30166667	132.0125	133.6930556	Female	Plasma			700	g	30	cm	"Body length"																																	2017/1/13	2017/1/13
PRA000020	SAA000778	ST008	7962	es-BANK	EF15392	CF19	"Cyprinus carpio"	"Common carp"	2014	4	23					Asia	Japan	Ehime	32.88472222	34.30166667	132.0125	133.6930556	Male	Plasma			2450	g	51.5	cm	"Body length"																																	2017/1/13	2017/1/13
PRA000020	SAA000779	ST008	217509	es-BANK	EF15393	CF20	"Carassius carassius"	"Crucian carp"	2014	4	23					Asia	Japan	Ehime	32.88472222	34.30166667	132.0125	133.6930556	Female	Plasma			850	g	29.5	cm	"Body length"																																	2017/1/13	2017/1/13
PRA000020	SAA000780	ST008	217509	es-BANK	"EF15394 "	CF21	"Carassius carassius"	"Crucian carp"	2014	4	23					Asia	Japan	Ehime	32.88472222	34.30166667	132.0125	133.6930556	Female	Plasma			650	g	26	cm	"Body length"																																	2017/1/13	2017/1/13
PRA000020	SAA000781	ST008	7962	es-BANK	"EF15395 "	CF22	"Cyprinus carpio"	"Common carp"	2014	4	23					Asia	Japan	Ehime	32.88472222	34.30166667	132.0125	133.6930556	Female	Plasma			1450	g	38	cm	"Body length"																																	2017/1/13	2017/1/13
PRA000020	SAA000782	ST008	7962	es-BANK	"EF15396 "	CF23	"Cyprinus carpio"	"Common carp"	2014	4	23					Asia	Japan	Ehime	32.88472222	34.30166667	132.0125	133.6930556	Female	Plasma			1700	g	40.5	cm	"Body length"																																	2017/1/13	2017/1/13
PRA000020	SAA000783	ST008	7962	es-BANK	"EF15397 "	CF24	"Cyprinus carpio"	"Common carp"	2014	4	23					Asia	Japan	Ehime	32.88472222	34.30166667	132.0125	133.6930556	Female	Plasma			2750	g	49	cm	"Body length"																																	2017/1/13	2017/1/13
PRA000020	SAA000784	ST008	217509	es-BANK	"EF15380 "	CF7	"Carassius carassius"	"Crucian carp"	2013	8	8					Asia	Japan	Ehime	32.88472222	34.30166667	132.0125	133.6930556	Female	Brain			640	g	27.5	cm	"Body length"																																	2017/1/13	2017/1/13
PRA000020	SAA000785	ST008	217509	es-BANK	"EF15381 "	CF8	"Carassius carassius"	"Crucian carp"	2013	8	8					Asia	Japan	Ehime	32.88472222	34.30166667	132.0125	133.6930556	Female	Brain			590	g	27	cm	"Body length"																																	2017/1/13	2017/1/13
PRA000020	SAA000786	ST008	217509	es-BANK	"EF15382 "	CF9	"Carassius carassius"	"Crucian carp"	2013	8	8					Asia	Japan	Ehime	32.88472222	34.30166667	132.0125	133.6930556	Female	Brain			800	g	29	cm	"Body length"																																	2017/1/13	2017/1/13
PRA000020	SAA000787	ST008	217509	es-BANK	"EF15383 "	CF10	"Carassius carassius"	"Crucian carp"	2013	8	8					Asia	Japan	Ehime	32.88472222	34.30166667	132.0125	133.6930556	Female	Brain			710	g	26.5	cm	"Body length"																																	2017/1/13	2017/1/13
PRA000020	SAA000788	ST008	217509	es-BANK	"EF15384 "	CF11	"Carassius carassius"	"Crucian carp"	2013	8	8					Asia	Japan	Ehime	32.88472222	34.30166667	132.0125	133.6930556	unknown	Brain			150	g	16.5	cm	"Body length"																																	2017/1/13	2017/1/13
PRA000020	SAA000789	ST008	7962	es-BANK	"EF15385 "	CF12	"Cyprinus carpio"	"Common carp"	2013	8	8					Asia	Japan	Ehime	32.88472222	34.30166667	132.0125	133.6930556	unknown	Brain			270	g	22	cm	"Body length"																																	2017/1/13	2017/1/13
PRA000020	SAA000790	ST008	7962	es-BANK	"EF15386 "	CF13	"Cyprinus carpio"	"Common carp"	2013	8	8					Asia	Japan	Ehime	32.88472222	34.30166667	132.0125	133.6930556	Male	Brain			1600	g	42.5	cm	"Body length"																																	2017/1/13	2017/1/13
PRA000020	SAA000791	ST008	7962	es-BANK	"EF15387 "	CF14	"Cyprinus carpio"	"Common carp"	2013	12	3					Asia	Japan	Ehime	32.88472222	34.30166667	132.0125	133.6930556	Female	Brain			2550	g	49	cm	"Body length"																																	2017/1/13	2017/1/13
PRA000020	SAA000792	ST008	7962	es-BANK	"EF15388 "	CF15	"Cyprinus carpio"	"Common carp"	2013	12	3					Asia	Japan	Ehime	32.88472222	34.30166667	132.0125	133.6930556	Female	Brain			3100	g	51	cm	"Body length"																																	2017/1/13	2017/1/13
PRA000020	SAA000793	ST008	7962	es-BANK	"EF15389 "	CF16	"Cyprinus carpio"	"Common carp"	2013	12	3					Asia	Japan	Ehime	32.88472222	34.30166667	132.0125	133.6930556	Female	Brain			4150	g	55	cm	"Body length"																																	2017/1/13	2017/1/13
PRA000020	SAA000794	ST008	7962	es-BANK	"EF15390 "	CF17	"Cyprinus carpio"	"Common carp"	2013	12	3					Asia	Japan	Ehime	32.88472222	34.30166667	132.0125	133.6930556	Female	Brain			3050	g	54	cm	"Body length"																																	2017/1/13	2017/1/13
PRA000020	SAA000795	ST008	7962	es-BANK	"EF15391 "	CF18	"Cyprinus carpio"	"Common carp"	2013	12	3					Asia	Japan	Ehime	32.88472222	34.30166667	132.0125	133.6930556	Female	Brain			700	g	30	cm	"Body length"																																	2017/1/13	2017/1/13
PRA000020	SAA000796	ST008	7962	es-BANK	EF15392	CF19	"Cyprinus carpio"	"Common carp"	2014	4	23					Asia	Japan	Ehime	32.88472222	34.30166667	132.0125	133.6930556	Male	Brain			2450	g	51.5	cm	"Body length"																																	2017/1/13	2017/1/13
PRA000020	SAA000797	ST008	217509	es-BANK	EF15393	CF20	"Carassius carassius"	"Crucian carp"	2014	4	23					Asia	Japan	Ehime	32.88472222	34.30166667	132.0125	133.6930556	Female	Brain			850	g	29.5	cm	"Body length"																																	2017/1/13	2017/1/13
PRA000020	SAA000798	ST008	217509	es-BANK	"EF15394 "	CF21	"Carassius carassius"	"Crucian carp"	2014	4	23					Asia	Japan	Ehime	32.88472222	34.30166667	132.0125	133.6930556	Female	Brain			650	g	26	cm	"Body length"																																	2017/1/13	2017/1/13
PRA000020	SAA000799	ST008	7962	es-BANK	"EF15395 "	CF22	"Cyprinus carpio"	"Common carp"	2014	4	23					Asia	Japan	Ehime	32.88472222	34.30166667	132.0125	133.6930556	Female	Brain			1450	g	38	cm	"Body length"																																	2017/1/13	2017/1/13
PRA000020	SAA000800	ST008	7962	es-BANK	"EF15396 "	CF23	"Cyprinus carpio"	"Common carp"	2014	4	23					Asia	Japan	Ehime	32.88472222	34.30166667	132.0125	133.6930556	Female	Brain			1700	g	40.5	cm	"Body length"																																	2017/1/13	2017/1/13
PRA000020	SAA000801	ST008	7962	es-BANK	"EF15397 "	CF24	"Cyprinus carpio"	"Common carp"	2014	4	23					Asia	Japan	Ehime	32.88472222	34.30166667	132.0125	133.6930556	Female	Brain			2750	g	49	cm	"Body length"																																	2017/1/13	2017/1/13
PRA000020	SAA000802	ST008	217509	es-BANK	"EF15380 "	CF7	"Carassius carassius"	"Crucian carp"	2013	8	8					Asia	Japan	Ehime	32.88472222	34.30166667	132.0125	133.6930556	Female	Liver			640	g	27.5	cm	"Body length"																																	2017/1/13	2017/1/13
PRA000020	SAA000803	ST008	217509	es-BANK	"EF15381 "	CF8	"Carassius carassius"	"Crucian carp"	2013	8	8					Asia	Japan	Ehime	32.88472222	34.30166667	132.0125	133.6930556	Female	Liver			590	g	27	cm	"Body length"																																	2017/1/13	2017/1/13
PRA000020	SAA000804	ST008	217509	es-BANK	"EF15382 "	CF9	"Carassius carassius"	"Crucian carp"	2013	8	8					Asia	Japan	Ehime	32.88472222	34.30166667	132.0125	133.6930556	Female	Liver			800	g	29	cm	"Body length"																																	2017/1/13	2017/1/13
PRA000020	SAA000805	ST008	217509	es-BANK	"EF15383 "	CF10	"Carassius carassius"	"Crucian carp"	2013	8	8					Asia	Japan	Ehime	32.88472222	34.30166667	132.0125	133.6930556	Female	Liver			710	g	26.5	cm	"Body length"																																	2017/1/13	2017/1/13
PRA000020	SAA000806	ST008	217509	es-BANK	"EF15384 "	CF11	"Carassius carassius"	"Crucian carp"	2013	8	8					Asia	Japan	Ehime	32.88472222	34.30166667	132.0125	133.6930556	unknown	Liver			150	g	16.5	cm	"Body length"																																	2017/1/13	2017/1/13
PRA000020	SAA000807	ST008	7962	es-BANK	"EF15385 "	CF12	"Cyprinus carpio"	"Common carp"	2013	8	8					Asia	Japan	Ehime	32.88472222	34.30166667	132.0125	133.6930556	unknown	Liver			270	g	22	cm	"Body length"																																	2017/1/13	2017/1/13
PRA000020	SAA000808	ST008	7962	es-BANK	"EF15386 "	CF13	"Cyprinus carpio"	"Common carp"	2013	8	8					Asia	Japan	Ehime	32.88472222	34.30166667	132.0125	133.6930556	Male	Liver			1600	g	42.5	cm	"Body length"																																	2017/1/13	2017/1/13
PRA000020	SAA000809	ST008	7962	es-BANK	"EF15387 "	CF14	"Cyprinus carpio"	"Common carp"	2013	12	3					Asia	Japan	Ehime	32.88472222	34.30166667	132.0125	133.6930556	Female	Liver			2550	g	49	cm	"Body length"																																	2017/1/13	2017/1/13
PRA000020	SAA000810	ST008	7962	es-BANK	"EF15388 "	CF15	"Cyprinus carpio"	"Common carp"	2013	12	3					Asia	Japan	Ehime	32.88472222	34.30166667	132.0125	133.6930556	Female	Liver			3100	g	51	cm	"Body length"																																	2017/1/13	2017/1/13
PRA000020	SAA000811	ST008	7962	es-BANK	"EF15389 "	CF16	"Cyprinus carpio"	"Common carp"	2013	12	3					Asia	Japan	Ehime	32.88472222	34.30166667	132.0125	133.6930556	Female	Liver			4150	g	55	cm	"Body length"																																	2017/1/13	2017/1/13
PRA000020	SAA000812	ST008	7962	es-BANK	"EF15390 "	CF17	"Cyprinus carpio"	"Common carp"	2013	12	3					Asia	Japan	Ehime	32.88472222	34.30166667	132.0125	133.6930556	Female	Liver			3050	g	54	cm	"Body length"																																	2017/1/13	2017/1/13
PRA000020	SAA000813	ST008	7962	es-BANK	"EF15391 "	CF18	"Cyprinus carpio"	"Common carp"	2013	12	3					Asia	Japan	Ehime	32.88472222	34.30166667	132.0125	133.6930556	Female	Liver			700	g	30	cm	"Body length"																																	2017/1/13	2017/1/13
PRA000020	SAA000814	ST008	7962	es-BANK	EF15392	CF19	"Cyprinus carpio"	"Common carp"	2014	4	23					Asia	Japan	Ehime	32.88472222	34.30166667	132.0125	133.6930556	Male	Liver			2450	g	51.5	cm	"Body length"																																	2017/1/13	2017/1/13
PRA000020	SAA000815	ST008	217509	es-BANK	EF15393	CF20	"Carassius carassius"	"Crucian carp"	2014	4	23					Asia	Japan	Ehime	32.88472222	34.30166667	132.0125	133.6930556	Female	Liver			850	g	29.5	cm	"Body length"																																	2017/1/13	2017/1/13
PRA000020	SAA000816	ST008	217509	es-BANK	"EF15394 "	CF21	"Carassius carassius"	"Crucian carp"	2014	4	23					Asia	Japan	Ehime	32.88472222	34.30166667	132.0125	133.6930556	Female	Liver			650	g	26	cm	"Body length"																																	2017/1/13	2017/1/13
PRA000020	SAA000817	ST008	7962	es-BANK	"EF15395 "	CF22	"Cyprinus carpio"	"Common carp"	2014	4	23					Asia	Japan	Ehime	32.88472222	34.30166667	132.0125	133.6930556	Female	Liver			1450	g	38	cm	"Body length"																																	2017/1/13	2017/1/13
PRA000020	SAA000818	ST008	7962	es-BANK	"EF15396 "	CF23	"Cyprinus carpio"	"Common carp"	2014	4	23					Asia	Japan	Ehime	32.88472222	34.30166667	132.0125	133.6930556	Female	Liver			1700	g	40.5	cm	"Body length"																																	2017/1/13	2017/1/13
PRA000020	SAA000819	ST008	7962	es-BANK	"EF15397 "	CF24	"Cyprinus carpio"	"Common carp"	2014	4	23					Asia	Japan	Ehime	32.88472222	34.30166667	132.0125	133.6930556	Female	Liver			2750	g	49	cm	"Body length"																																	2017/1/13	2017/1/13
PRA000020	SAA000820	ST008	217509	es-BANK	"EF15380 "	CF7	"Carassius carassius"	"Crucian carp"	2013	8	8					Asia	Japan	Ehime	32.88472222	34.30166667	132.0125	133.6930556	Female	Kidney			640	g	27.5	cm	"Body length"																																	2017/1/13	2017/1/13
PRA000020	SAA000821	ST008	217509	es-BANK	"EF15381 "	CF8	"Carassius carassius"	"Crucian carp"	2013	8	8					Asia	Japan	Ehime	32.88472222	34.30166667	132.0125	133.6930556	Female	Kidney			590	g	27	cm	"Body length"																																	2017/1/13	2017/1/13
PRA000020	SAA000822	ST008	217509	es-BANK	"EF15382 "	CF9	"Carassius carassius"	"Crucian carp"	2013	8	8					Asia	Japan	Ehime	32.88472222	34.30166667	132.0125	133.6930556	Female	Kidney			800	g	29	cm	"Body length"																																	2017/1/13	2017/1/13
PRA000020	SAA000823	ST008	217509	es-BANK	"EF15383 "	CF10	"Carassius carassius"	"Crucian carp"	2013	8	8					Asia	Japan	Ehime	32.88472222	34.30166667	132.0125	133.6930556	Female	Kidney			710	g	26.5	cm	"Body length"																																	2017/1/13	2017/1/13
PRA000020	SAA000824	ST008	217509	es-BANK	"EF15384 "	CF11	"Carassius carassius"	"Crucian carp"	2013	8	8					Asia	Japan	Ehime	32.88472222	34.30166667	132.0125	133.6930556	unknown	Kidney			150	g	16.5	cm	"Body length"																																	2017/1/13	2017/1/13
PRA000020	SAA000825	ST008	7962	es-BANK	"EF15385 "	CF12	"Cyprinus carpio"	"Common carp"	2013	8	8					Asia	Japan	Ehime	32.88472222	34.30166667	132.0125	133.6930556	unknown	Kidney			270	g	22	cm	"Body length"																																	2017/1/13	2017/1/13
PRA000020	SAA000826	ST008	7962	es-BANK	"EF15386 "	CF13	"Cyprinus carpio"	"Common carp"	2013	8	8					Asia	Japan	Ehime	32.88472222	34.30166667	132.0125	133.6930556	Male	Kidney			1600	g	42.5	cm	"Body length"																																	2017/1/13	2017/1/13
PRA000020	SAA000827	ST008	7962	es-BANK	"EF15387 "	CF14	"Cyprinus carpio"	"Common carp"	2013	12	3					Asia	Japan	Ehime	32.88472222	34.30166667	132.0125	133.6930556	Female	Kidney			2550	g	49	cm	"Body length"																																	2017/1/13	2017/1/13
PRA000020	SAA000828	ST008	7962	es-BANK	"EF15388 "	CF15	"Cyprinus carpio"	"Common carp"	2013	12	3					Asia	Japan	Ehime	32.88472222	34.30166667	132.0125	133.6930556	Female	Kidney			3100	g	51	cm	"Body length"																																	2017/1/13	2017/1/13
PRA000020	SAA000829	ST008	7962	es-BANK	"EF15389 "	CF16	"Cyprinus carpio"	"Common carp"	2013	12	3					Asia	Japan	Ehime	32.88472222	34.30166667	132.0125	133.6930556	Female	Kidney			4150	g	55	cm	"Body length"																																	2017/1/13	2017/1/13
PRA000020	SAA000830	ST008	7962	es-BANK	"EF15390 "	CF17	"Cyprinus carpio"	"Common carp"	2013	12	3					Asia	Japan	Ehime	32.88472222	34.30166667	132.0125	133.6930556	Female	Kidney			3050	g	54	cm	"Body length"																																	2017/1/13	2017/1/13
PRA000020	SAA000831	ST008	7962	es-BANK	"EF15391 "	CF18	"Cyprinus carpio"	"Common carp"	2013	12	3					Asia	Japan	Ehime	32.88472222	34.30166667	132.0125	133.6930556	Female	Kidney			700	g	30	cm	"Body length"																																	2017/1/13	2017/1/13
PRA000020	SAA000832	ST008	7962	es-BANK	EF15392	CF19	"Cyprinus carpio"	"Common carp"	2014	4	23					Asia	Japan	Ehime	32.88472222	34.30166667	132.0125	133.6930556	Male	Kidney			2450	g	51.5	cm	"Body length"																																	2017/1/13	2017/1/13
PRA000020	SAA000833	ST008	217509	es-BANK	EF15393	CF20	"Carassius carassius"	"Crucian carp"	2014	4	23					Asia	Japan	Ehime	32.88472222	34.30166667	132.0125	133.6930556	Female	Kidney			850	g	29.5	cm	"Body length"																																	2017/1/13	2017/1/13
PRA000020	SAA000834	ST008	217509	es-BANK	"EF15394 "	CF21	"Carassius carassius"	"Crucian carp"	2014	4	23					Asia	Japan	Ehime	32.88472222	34.30166667	132.0125	133.6930556	Female	Kidney			650	g	26	cm	"Body length"																																	2017/1/13	2017/1/13
PRA000020	SAA000835	ST008	7962	es-BANK	"EF15395 "	CF22	"Cyprinus carpio"	"Common carp"	2014	4	23					Asia	Japan	Ehime	32.88472222	34.30166667	132.0125	133.6930556	Female	Kidney			1450	g	38	cm	"Body length"																																	2017/1/13	2017/1/13
PRA000020	SAA000836	ST008	7962	es-BANK	"EF15396 "	CF23	"Cyprinus carpio"	"Common carp"	2014	4	23					Asia	Japan	Ehime	32.88472222	34.30166667	132.0125	133.6930556	Female	Kidney			1700	g	40.5	cm	"Body length"																																	2017/1/13	2017/1/13
PRA000020	SAA000837	ST008	7962	es-BANK	"EF15397 "	CF24	"Cyprinus carpio"	"Common carp"	2014	4	23					Asia	Japan	Ehime	32.88472222	34.30166667	132.0125	133.6930556	Female	Kidney			2750	g	49	cm	"Body length"																																	2017/1/13	2017/1/13
PRA000020	SAA000838	ST008	217509	es-BANK	"EF15380 "	CF7	"Carassius carassius"	"Crucian carp"	2013	8	8					Asia	Japan	Ehime	32.88472222	34.30166667	132.0125	133.6930556	Female	Muscle			640	g	27.5	cm	"Body length"																																	2017/1/13	2017/1/13
PRA000020	SAA000839	ST008	217509	es-BANK	"EF15381 "	CF8	"Carassius carassius"	"Crucian carp"	2013	8	8					Asia	Japan	Ehime	32.88472222	34.30166667	132.0125	133.6930556	Female	Muscle			590	g	27	cm	"Body length"																																	2017/1/13	2017/1/13
PRA000020	SAA000840	ST008	217509	es-BANK	"EF15382 "	CF9	"Carassius carassius"	"Crucian carp"	2013	8	8					Asia	Japan	Ehime	32.88472222	34.30166667	132.0125	133.6930556	Female	Muscle			800	g	29	cm	"Body length"																																	2017/1/13	2017/1/13
PRA000020	SAA000841	ST008	217509	es-BANK	"EF15383 "	CF10	"Carassius carassius"	"Crucian carp"	2013	8	8					Asia	Japan	Ehime	32.88472222	34.30166667	132.0125	133.6930556	Female	Muscle			710	g	26.5	cm	"Body length"																																	2017/1/13	2017/1/13
PRA000020	SAA000842	ST008	217509	es-BANK	"EF15384 "	CF11	"Carassius carassius"	"Crucian carp"	2013	8	8					Asia	Japan	Ehime	32.88472222	34.30166667	132.0125	133.6930556	unknown	Muscle			150	g	16.5	cm	"Body length"																																	2017/1/13	2017/1/13
PRA000020	SAA000843	ST008	7962	es-BANK	"EF15385 "	CF12	"Cyprinus carpio"	"Common carp"	2013	8	8					Asia	Japan	Ehime	32.88472222	34.30166667	132.0125	133.6930556	unknown	Muscle			270	g	22	cm	"Body length"																																	2017/1/13	2017/1/13
PRA000020	SAA000844	ST008	7962	es-BANK	"EF15386 "	CF13	"Cyprinus carpio"	"Common carp"	2013	8	8					Asia	Japan	Ehime	32.88472222	34.30166667	132.0125	133.6930556	Male	Muscle			1600	g	42.5	cm	"Body length"																																	2017/1/13	2017/1/13
PRA000020	SAA000845	ST008	7962	es-BANK	"EF15387 "	CF14	"Cyprinus carpio"	"Common carp"	2013	12	3					Asia	Japan	Ehime	32.88472222	34.30166667	132.0125	133.6930556	Female	Muscle			2550	g	49	cm	"Body length"																																	2017/1/13	2017/1/13
PRA000020	SAA000846	ST008	7962	es-BANK	"EF15388 "	CF15	"Cyprinus carpio"	"Common carp"	2013	12	3					Asia	Japan	Ehime	32.88472222	34.30166667	132.0125	133.6930556	Female	Muscle			3100	g	51	cm	"Body length"																																	2017/1/13	2017/1/13
PRA000020	SAA000847	ST008	7962	es-BANK	"EF15389 "	CF16	"Cyprinus carpio"	"Common carp"	2013	12	3					Asia	Japan	Ehime	32.88472222	34.30166667	132.0125	133.6930556	Female	Muscle			4150	g	55	cm	"Body length"																																	2017/1/13	2017/1/13
PRA000020	SAA000848	ST008	7962	es-BANK	"EF15390 "	CF17	"Cyprinus carpio"	"Common carp"	2013	12	3					Asia	Japan	Ehime	32.88472222	34.30166667	132.0125	133.6930556	Female	Muscle			3050	g	54	cm	"Body length"																																	2017/1/13	2017/1/13
PRA000020	SAA000849	ST008	7962	es-BANK	"EF15391 "	CF18	"Cyprinus carpio"	"Common carp"	2013	12	3					Asia	Japan	Ehime	32.88472222	34.30166667	132.0125	133.6930556	Female	Muscle			700	g	30	cm	"Body length"																																	2017/1/13	2017/1/13
PRA000020	SAA000850	ST008	7962	es-BANK	EF15392	CF19	"Cyprinus carpio"	"Common carp"	2014	4	23					Asia	Japan	Ehime	32.88472222	34.30166667	132.0125	133.6930556	Male	Muscle			2450	g	51.5	cm	"Body length"																																	2017/1/13	2017/1/13
PRA000020	SAA000851	ST008	217509	es-BANK	EF15393	CF20	"Carassius carassius"	"Crucian carp"	2014	4	23					Asia	Japan	Ehime	32.88472222	34.30166667	132.0125	133.6930556	Female	Muscle			850	g	29.5	cm	"Body length"																																	2017/1/13	2017/1/13
PRA000020	SAA000852	ST008	217509	es-BANK	"EF15394 "	CF21	"Carassius carassius"	"Crucian carp"	2014	4	23					Asia	Japan	Ehime	32.88472222	34.30166667	132.0125	133.6930556	Female	Muscle			650	g	26	cm	"Body length"																																	2017/1/13	2017/1/13
PRA000020	SAA000853	ST008	7962	es-BANK	"EF15395 "	CF22	"Cyprinus carpio"	"Common carp"	2014	4	23					Asia	Japan	Ehime	32.88472222	34.30166667	132.0125	133.6930556	Female	Muscle			1450	g	38	cm	"Body length"																																	2017/1/13	2017/1/13
PRA000020	SAA000854	ST008	7962	es-BANK	"EF15396 "	CF23	"Cyprinus carpio"	"Common carp"	2014	4	23					Asia	Japan	Ehime	32.88472222	34.30166667	132.0125	133.6930556	Female	Muscle			1700	g	40.5	cm	"Body length"																																	2017/1/13	2017/1/13
PRA000020	SAA000855	ST008	7962	es-BANK	"EF15397 "	CF24	"Cyprinus carpio"	"Common carp"	2014	4	23					Asia	Japan	Ehime	32.88472222	34.30166667	132.0125	133.6930556	Female	Muscle			2750	g	49	cm	"Body length"																																	2017/1/13	2017/1/13
PRA000020	SAA000856	ST008	217509	es-BANK	"EF15380 "	CF7	"Carassius carassius"	"Crucian carp"	2013	8	8					Asia	Japan	Ehime	32.88472222	34.30166667	132.0125	133.6930556	Female	Gills			640	g	27.5	cm	"Body length"																																	2017/1/13	2017/1/13
PRA000020	SAA000857	ST008	217509	es-BANK	"EF15381 "	CF8	"Carassius carassius"	"Crucian carp"	2013	8	8					Asia	Japan	Ehime	32.88472222	34.30166667	132.0125	133.6930556	Female	Gills			590	g	27	cm	"Body length"																																	2017/1/13	2017/1/13
PRA000020	SAA000858	ST008	217509	es-BANK	"EF15382 "	CF9	"Carassius carassius"	"Crucian carp"	2013	8	8					Asia	Japan	Ehime	32.88472222	34.30166667	132.0125	133.6930556	Female	Gills			800	g	29	cm	"Body length"																																	2017/1/13	2017/1/13
PRA000020	SAA000859	ST008	217509	es-BANK	"EF15383 "	CF10	"Carassius carassius"	"Crucian carp"	2013	8	8					Asia	Japan	Ehime	32.88472222	34.30166667	132.0125	133.6930556	Female	Gills			710	g	26.5	cm	"Body length"																																	2017/1/13	2017/1/13
PRA000020	SAA000860	ST008	217509	es-BANK	"EF15384 "	CF11	"Carassius carassius"	"Crucian carp"	2013	8	8					Asia	Japan	Ehime	32.88472222	34.30166667	132.0125	133.6930556	unknown	Gills			150	g	16.5	cm	"Body length"																																	2017/1/13	2017/1/13
PRA000020	SAA000861	ST008	7962	es-BANK	"EF15385 "	CF12	"Cyprinus carpio"	"Common carp"	2013	8	8					Asia	Japan	Ehime	32.88472222	34.30166667	132.0125	133.6930556	unknown	Gills			270	g	22	cm	"Body length"																																	2017/1/13	2017/1/13
PRA000020	SAA000862	ST008	7962	es-BANK	"EF15386 "	CF13	"Cyprinus carpio"	"Common carp"	2013	8	8					Asia	Japan	Ehime	32.88472222	34.30166667	132.0125	133.6930556	Male	Gills			1600	g	42.5	cm	"Body length"																																	2017/1/13	2017/1/13
PRA000020	SAA000863	ST008	7962	es-BANK	"EF15387 "	CF14	"Cyprinus carpio"	"Common carp"	2013	12	3					Asia	Japan	Ehime	32.88472222	34.30166667	132.0125	133.6930556	Female	Gills			2550	g	49	cm	"Body length"																																	2017/1/13	2017/1/13
PRA000020	SAA000864	ST008	7962	es-BANK	"EF15388 "	CF15	"Cyprinus carpio"	"Common carp"	2013	12	3					Asia	Japan	Ehime	32.88472222	34.30166667	132.0125	133.6930556	Female	Gills			3100	g	51	cm	"Body length"																																	2017/1/13	2017/1/13
PRA000020	SAA000865	ST008	7962	es-BANK	"EF15389 "	CF16	"Cyprinus carpio"	"Common carp"	2013	12	3					Asia	Japan	Ehime	32.88472222	34.30166667	132.0125	133.6930556	Female	Gills			4150	g	55	cm	"Body length"																																	2017/1/13	2017/1/13
PRA000020	SAA000866	ST008	7962	es-BANK	"EF15390 "	CF17	"Cyprinus carpio"	"Common carp"	2013	12	3					Asia	Japan	Ehime	32.88472222	34.30166667	132.0125	133.6930556	Female	Gills			3050	g	54	cm	"Body length"																																	2017/1/13	2017/1/13
PRA000020	SAA000867	ST008	7962	es-BANK	"EF15391 "	CF18	"Cyprinus carpio"	"Common carp"	2013	12	3					Asia	Japan	Ehime	32.88472222	34.30166667	132.0125	133.6930556	Female	Gills			700	g	30	cm	"Body length"																																	2017/1/13	2017/1/13
PRA000020	SAA000868	ST008	7962	es-BANK	EF15392	CF19	"Cyprinus carpio"	"Common carp"	2014	4	23					Asia	Japan	Ehime	32.88472222	34.30166667	132.0125	133.6930556	Male	Gills			2450	g	51.5	cm	"Body length"																																	2017/1/13	2017/1/13
PRA000020	SAA000869	ST008	217509	es-BANK	EF15393	CF20	"Carassius carassius"	"Crucian carp"	2014	4	23					Asia	Japan	Ehime	32.88472222	34.30166667	132.0125	133.6930556	Female	Gills			850	g	29.5	cm	"Body length"																																	2017/1/13	2017/1/13
PRA000020	SAA000870	ST008	217509	es-BANK	"EF15394 "	CF21	"Carassius carassius"	"Crucian carp"	2014	4	23					Asia	Japan	Ehime	32.88472222	34.30166667	132.0125	133.6930556	Female	Gills			650	g	26	cm	"Body length"																																	2017/1/13	2017/1/13
PRA000020	SAA000871	ST008	7962	es-BANK	"EF15395 "	CF22	"Cyprinus carpio"	"Common carp"	2014	4	23					Asia	Japan	Ehime	32.88472222	34.30166667	132.0125	133.6930556	Female	Gills			1450	g	38	cm	"Body length"																																	2017/1/13	2017/1/13
PRA000020	SAA000872	ST008	7962	es-BANK	"EF15396 "	CF23	"Cyprinus carpio"	"Common carp"	2014	4	23					Asia	Japan	Ehime	32.88472222	34.30166667	132.0125	133.6930556	Female	Gills			1700	g	40.5	cm	"Body length"																																	2017/1/13	2017/1/13
PRA000020	SAA000873	ST008	7962	es-BANK	"EF15397 "	CF24	"Cyprinus carpio"	"Common carp"	2014	4	23					Asia	Japan	Ehime	32.88472222	34.30166667	132.0125	133.6930556	Female	Gills			2750	g	49	cm	"Body length"																																	2017/1/13	2017/1/13
PRA000020	SAA000874	ST015				WK1	Water	"Ambient water from effluent-dominated streams"	2011	11	2					Asia	Japan	Kumamoto	32.09472222	33.19527778	129.9402778	131.3294444																																									"n=3; At 6-h intervals"	2017/1/13	2017/1/13
PRA000020	SAA000875	ST015				WE1	Water	"Ambient water from effluent-dominated streams"	2013	8	8					Asia	Japan	Ehime	32.88472222	34.30166667	132.0125	133.6930556																																									"n=5; At 6-h intervals"	2017/1/13	2017/1/13
PRA000020	SAA000876	ST015				WE2	Water	"Ambient water from effluent-dominated streams"	2013	12	3					Asia	Japan	Ehime	32.88472222	34.30166667	132.0125	133.6930556																																									"n=4; At 6-h intervals"	2017/1/13	2017/1/13
PRA000020	SAA000877	ST015				WE3	Water	"Ambient water from effluent-dominated streams"	2014	4	23					Asia	Japan	Ehime	32.88472222	34.30166667	132.0125	133.6930556																																									"n=4; At 6-h intervals"	2017/1/13	2017/1/13
PRA000020	SAA000878	ST015				WE4	Water	"Ambient water from effluent-dominated streams"	2014	8	18					Asia	Japan	Ehime	32.88472222	34.30166667	132.0125	133.6930556																																									n=1	2017/1/13	2017/1/13
PRA000020	SAA000879	ST010				P1	Plant	Periphytons	2014	8	18					Asia	Japan	Ehime	32.88472222	34.30166667	132.0125	133.6930556																																									"Periphyton communities on rocks collected from the same site as the collection site of fish and water."	2017/1/13	2017/1/13
